Time,TemperatureF,DewpointF,PressureIn,WindDirection,WindDirectionDegrees,WindSpeedMPH,WindSpeedGustMPH,Humidity,HourlyPrecipIn,Conditions,Clouds,dailyrainin,SoftwareType,DateUTC
2013-09-19 00:13:00,68.0,66.0,30.08,SE,134,0.0,-999.0,94,-99.99,,,0.00,,2013-09-19 05:13:00,
2013-09-19 00:23:00,68.0,66.0,30.08,SE,134,0.0,-999.0,94,-99.99,,,0.00,,2013-09-19 05:23:00,
2013-09-19 00:52:00,68.0,66.0,30.07,ESE,116,0.0,-999.0,93,-99.99,,,0.00,,2013-09-19 05:52:00,
2013-09-19 01:12:00,69.0,67.0,30.08,East,91,2.0,-999.0,93,-99.99,,,0.00,,2013-09-19 06:12:00,
2013-09-19 01:22:00,69.0,67.0,30.08,ESE,110,1.0,-999.0,93,-99.99,,,0.00,,2013-09-19 06:22:00,
2013-09-19 01:43:00,68.0,66.0,30.08,ESE,110,0.0,-999.0,93,-99.99,,,0.00,,2013-09-19 06:43:00,
2013-09-19 01:52:00,68.0,66.0,30.08,SE,127,0.0,-999.0,93,-99.99,,,0.00,,2013-09-19 06:52:00,
2013-09-19 02:11:00,68.0,66.0,30.08,SE,127,0.0,-999.0,94,-99.99,,,0.00,,2013-09-19 07:11:00,
2013-09-19 02:22:00,68.0,66.0,30.08,SE,127,0.0,-999.0,94,-99.99,,,0.00,,2013-09-19 07:22:00,
2013-09-19 02:52:00,66.0,65.0,30.08,SE,127,0.0,-999.0,95,-99.99,,,0.00,,2013-09-19 07:52:00,
2013-09-19 03:12:00,66.0,65.0,30.07,SE,127,0.0,-999.0,96,-99.99,,,0.00,,2013-09-19 08:12:00,
2013-09-19 03:22:00,66.0,65.0,30.08,SE,127,0.0,-999.0,96,-99.99,,,0.00,,2013-09-19 08:22:00,
2013-09-19 03:52:00,66.0,65.0,30.08,SE,127,0.0,-999.0,97,-99.99,,,0.00,,2013-09-19 08:52:00,
2013-09-19 04:11:00,65.0,64.0,30.08,SE,127,0.0,-999.0,97,-99.99,,,0.00,,2013-09-19 09:11:00,
2013-09-19 04:21:00,65.0,64.0,30.08,SE,127,0.0,-999.0,97,-99.99,,,0.00,,2013-09-19 09:21:00,
2013-09-19 04:53:00,66.0,65.0,30.08,SE,127,0.0,-999.0,97,-99.99,,,0.00,,2013-09-19 09:53:00,
2013-09-19 05:12:00,66.0,65.0,30.08,SE,127,0.0,-999.0,97,-99.99,,,0.00,,2013-09-19 10:12:00,
2013-09-19 05:23:00,65.0,64.0,30.08,SE,127,0.0,-999.0,97,-99.99,,,0.00,,2013-09-19 10:23:00,
2013-09-19 05:43:00,65.0,64.0,30.09,SE,127,0.0,-999.0,97,-99.99,,,0.00,,2013-09-19 10:43:00,
2013-09-19 05:52:00,65.0,64.0,30.09,SE,127,0.0,-999.0,98,-99.99,,,0.00,,2013-09-19 10:52:00,
2013-09-19 06:12:00,66.0,65.0,30.10,SE,129,1.0,-999.0,98,-99.99,,,0.00,,2013-09-19 11:12:00,
2013-09-19 06:22:00,66.0,65.0,30.10,SE,129,1.0,-999.0,98,-99.99,,,0.00,,2013-09-19 11:22:00,
2013-09-19 06:33:00,66.0,65.0,30.10,SE,129,1.0,-999.0,98,-99.99,,,0.00,,2013-09-19 11:33:00,
2013-09-19 06:53:00,67.0,65.0,30.10,SE,139,1.0,-999.0,94,-99.99,,,0.00,,2013-09-19 11:53:00,
2013-09-19 07:11:00,67.0,65.0,30.10,SE,139,1.0,-999.0,93,-99.99,,,0.00,,2013-09-19 12:11:00,
2013-09-19 07:21:00,67.0,65.0,30.10,SE,139,1.0,-999.0,93,-99.99,,,0.00,,2013-09-19 12:21:00,
2013-09-19 07:32:00,67.0,65.0,30.10,SE,139,1.0,-999.0,93,-99.99,,,0.00,,2013-09-19 12:32:00,
2013-09-19 08:22:00,69.0,66.0,30.12,ESE,118,3.0,-999.0,89,-99.99,,,0.00,,2013-09-19 13:22:00,
2013-09-19 08:52:00,71.0,66.0,30.12,SE,135,3.0,-999.0,84,-99.99,,,0.00,,2013-09-19 13:52:00,
2013-09-19 09:02:00,71.0,66.0,30.12,SE,135,3.0,-999.0,84,-99.99,,,0.00,,2013-09-19 14:02:00,
2013-09-19 09:22:00,73.0,66.0,30.11,East,98,4.0,-999.0,80,-99.99,,,0.00,,2013-09-19 14:22:00,
2013-09-19 09:52:00,75.0,67.0,30.11,SE,125,3.0,-999.0,77,-99.99,,,0.00,,2013-09-19 14:52:00,
2013-09-19 10:22:00,77.0,68.0,30.11,East,100,1.0,-999.0,74,-99.99,,,0.00,,2013-09-19 15:22:00,
2013-09-19 10:54:00,78.0,69.0,30.11,SSE,155,2.0,-999.0,73,-99.99,,,0.00,,2013-09-19 15:54:00,
2013-09-19 11:03:00,78.0,69.0,30.11,SSE,155,2.0,-999.0,73,-99.99,,,0.00,,2013-09-19 16:03:00,
2013-09-19 11:24:00,81.0,69.0,30.09,South,172,2.0,-999.0,68,-99.99,,,0.00,,2013-09-19 16:24:00,
2013-09-19 11:42:00,81.0,69.0,30.09,SE,142,3.0,-999.0,66,-99.99,,,0.00,,2013-09-19 16:42:00,
2013-09-19 11:52:00,80.0,68.0,30.09,East,87,3.0,-999.0,66,-99.99,,,0.00,,2013-09-19 16:52:00,
2013-09-19 12:03:00,80.0,68.0,30.09,East,87,3.0,-999.0,66,-99.99,,,0.00,,2013-09-19 17:03:00,
2013-09-19 12:12:00,80.0,68.0,30.09,East,87,3.0,-999.0,66,-99.99,,,0.00,,2013-09-19 17:12:00,
2013-09-19 12:23:00,82.0,69.0,30.07,SW,216,2.0,-999.0,65,-99.99,,,0.00,,2013-09-19 17:23:00,
2013-09-19 12:53:00,82.0,68.0,30.07,SSE,152,2.0,-999.0,63,-99.99,,,0.00,,2013-09-19 17:53:00,
2013-09-19 13:11:00,83.0,68.0,30.06,SSW,195,2.0,-999.0,61,-99.99,,,0.00,,2013-09-19 18:11:00,
2013-09-19 13:22:00,83.0,68.0,30.05,SW,221,3.0,-999.0,60,-99.99,,,0.00,,2013-09-19 18:22:00,
2013-09-19 13:32:00,83.0,68.0,30.05,SW,221,3.0,-999.0,60,-99.99,,,0.00,,2013-09-19 18:32:00,
2013-09-19 13:42:00,83.0,68.0,30.05,SW,221,3.0,-999.0,60,-99.99,,,0.00,,2013-09-19 18:42:00,
2013-09-19 13:52:00,83.0,68.0,30.05,SW,221,3.0,-999.0,60,-99.99,,,0.00,,2013-09-19 18:52:00,
2013-09-19 14:12:00,85.0,69.0,30.03,SW,217,2.0,-999.0,59,-99.99,,,0.00,,2013-09-19 19:12:00,
2013-09-19 14:22:00,85.0,69.0,30.03,SW,217,2.0,-999.0,59,-99.99,,,0.00,,2013-09-19 19:22:00,
2013-09-19 14:52:00,86.0,68.0,30.02,SSW,212,2.0,-999.0,56,-99.99,,,0.00,,2013-09-19 19:52:00,
2013-09-19 15:12:00,86.0,68.0,30.02,SSW,208,2.0,-999.0,56,-99.99,,,0.00,,2013-09-19 20:12:00,
2013-09-19 15:22:00,85.0,68.0,30.00,SSE,165,2.0,-999.0,57,-99.99,,,0.00,,2013-09-19 20:22:00,
2013-09-19 15:42:00,86.0,68.0,30.00,East,98,1.0,-999.0,56,-99.99,,,0.00,,2013-09-19 20:42:00,
2013-09-19 15:52:00,86.0,69.0,29.99,SW,224,2.0,-999.0,58,-99.99,,,0.00,,2013-09-19 20:52:00,
2013-09-19 16:02:00,86.0,69.0,29.99,SW,224,2.0,-999.0,58,-99.99,,,0.00,,2013-09-19 21:02:00,
2013-09-19 16:12:00,86.0,69.0,29.99,SW,224,2.0,-999.0,58,-99.99,,,0.00,,2013-09-19 21:12:00,
2013-09-19 16:22:00,87.0,69.0,29.98,SSW,192,3.0,-999.0,55,-99.99,,,0.00,,2013-09-19 21:22:00,
2013-09-19 16:44:00,87.0,68.0,29.98,South,172,3.0,-999.0,54,-99.99,,,0.00,,2013-09-19 21:44:00,
2013-09-19 16:55:00,87.0,70.0,29.98,SSW,197,2.0,-999.0,57,-99.99,,,0.00,,2013-09-19 21:55:00,
2013-09-19 17:14:00,87.0,69.0,29.98,SSE,149,2.0,-999.0,56,-99.99,,,0.00,,2013-09-19 22:14:00,
2013-09-19 17:24:00,87.0,69.0,29.98,SSE,149,2.0,-999.0,56,-99.99,,,0.00,,2013-09-19 22:24:00,
2013-09-19 17:33:00,87.0,69.0,29.98,SSE,149,2.0,-999.0,56,-99.99,,,0.00,,2013-09-19 22:33:00,
2013-09-19 19:52:00,73.0,68.0,29.98,SE,130,0.0,-999.0,84,-99.99,,,0.00,,2013-09-20 00:52:00,
2013-09-19 20:02:00,73.0,68.0,29.98,SE,130,0.0,-999.0,84,-99.99,,,0.00,,2013-09-20 01:02:00,
2013-09-19 20:12:00,73.0,68.0,29.98,SE,130,0.0,-999.0,84,-99.99,,,0.00,,2013-09-20 01:12:00,
2013-09-19 20:22:00,73.0,68.0,29.98,SE,130,0.0,-999.0,84,-99.99,,,0.00,,2013-09-20 01:22:00,
2013-09-19 20:32:00,73.0,68.0,29.98,SE,130,0.0,-999.0,84,-99.99,,,0.00,,2013-09-20 01:32:00,
2013-09-19 21:53:00,70.0,68.0,30.01,ESE,119,0.0,-999.0,92,-99.99,,,0.00,,2013-09-20 02:53:00,
2013-09-19 22:12:00,70.0,68.0,30.01,ESE,120,0.0,-999.0,92,-99.99,,,0.00,,2013-09-20 03:12:00,
2013-09-19 22:23:00,69.0,67.0,30.01,ESE,120,0.0,-999.0,93,-99.99,,,0.00,,2013-09-20 03:23:00,
2013-09-19 22:45:00,69.0,67.0,30.01,ESE,115,0.0,-999.0,93,-99.99,,,0.00,,2013-09-20 03:45:00,
2013-09-19 22:56:00,69.0,67.0,30.01,ESE,115,0.0,-999.0,94,-99.99,,,0.00,,2013-09-20 03:56:00,
2013-09-19 23:05:00,69.0,67.0,30.01,ESE,115,0.0,-999.0,94,-99.99,,,0.00,,2013-09-20 04:05:00,
2013-09-19 23:14:00,69.0,67.0,30.01,ESE,115,0.0,-999.0,94,-99.99,,,0.00,,2013-09-20 04:14:00,
2013-09-19 23:24:00,68.0,67.0,30.02,ESE,115,0.0,-999.0,95,-99.99,,,0.00,,2013-09-20 04:24:00,
2013-09-19 23:44:00,68.0,67.0,30.02,ESE,115,0.0,-999.0,95,-99.99,,,0.00,,2013-09-20 04:44:00,
2013-09-19 23:54:00,68.0,67.0,30.02,ESE,115,0.0,-999.0,95,-99.99,,,0.00,,2013-09-20 04:54:00,